• Join FlightAware (Why Join?)
  • Login
  • US Flag 
10:30AM EDT


 

Airport Tracker/Info


-or-


 

Live Flight TrackerFlight Track Log ✈ N983CA ✈ 16-Apr-2013 ✈ KDEN - KFAR

Flight Track Log - Related Links

Times and Time Zones

All times are in EDT time to prevent confusion due to time zone crossing. See the N983CA flight status page for this flight to view local times or setup timezone preferences in your user account.

Time Position Orientation Groundspeed Altitude Reporting Facility
EDT Latitude Longitude Course Direction KTS MPH feet Rate Location/Type
12:42PM 39.8333 -104.7333 27° Northeast 217 250 7,700  Level Denver TRACON
12:43PM 39.8833 -104.8333 303° West 301 346 10,100 1,560 Climbing Denver TRACON
12:44PM 40.1098 -104.4264 323° Northwest  Level FlightAware Approximate
12:44PM 39.8994 -104.8728 298° West 295 339 10,100  Level Denver Center
12:45PM 40.2355 -104.5000 North  Level FlightAware Approximate
12:45PM 39.9692 -104.9450 322° Northwest 307 353 11,000  Level Denver Center
12:46PM 40.3639 -104.4361 37° Northeast  Level FlightAware Approximate
12:46PM 40.0647 -104.9439 North 344 396 12,800  Level Denver Center
12:47PM 40.4734 -104.3150 34° Northeast  Level FlightAware Approximate
12:47PM 40.1708 -104.9525 356° North 354 407 14,800  Level Denver Center
12:48PM 40.5959 -104.2139 27° Northeast  Level FlightAware Approximate
12:48PM 40.2575 -104.8753 34° Northeast 404 465 16,300  Level Denver Center
12:49PM 40.3236 -104.7456 56° Northeast 426 490 17,900 1,560 Climbing Denver Center
12:50PM 40.3961 -104.6011 57° Northeast 434 499 19,600 1,500 Climbing Denver Center
12:51PM 40.4639 -104.4631 57° Northeast 445 512 21,000 1,260 Climbing Denver Center
12:52PM 40.5342 -104.3253 56° Northeast 453 521 22,300 1,200 Climbing Denver Center
12:53PM 40.6314 -104.2017 44° Northeast 458 527 23,500 1,020 Climbing Denver Center
12:54PM 40.7508 -104.1397 21° North 441 507 24,500 960 Climbing Denver Center
12:55PM 40.8719 -104.0708 23° Northeast 465 535 25,500 900 Climbing Denver Center
12:56PM 40.9936 -104.0019 23° Northeast 470 541 26,400 780 Climbing Denver Center
12:57PM 41.1239 -103.9289 23° Northeast 477 549 27,200 660 Climbing Denver Center
12:58PM 41.2428 -103.8594 24° Northeast 486 559 27,800 720 Climbing Denver Center
12:59PM 41.3853 -103.7783 23° Northeast 496 571 28,700 720 Climbing Denver Center
01:00PM 41.5072 -103.7064 24° Northeast 500 575 29,300 600 Climbing Denver Center
01:01PM 41.6522 -103.6225 23° Northeast 508 585 30,000 540 Climbing Denver Center
01:02PM 41.7775 -103.5500 23° Northeast 513 590 30,500 480 Climbing Denver Center
01:03PM 41.9197 -103.4500 28° Northeast 522 601 31,000 480 Climbing Denver Center
01:04PM 42.0264 -103.3256 41° Northeast 534 615 31,500 480 Climbing Denver Center
01:05PM 42.1489 -103.1803 41° Northeast 531 611 32,000 420 Climbing Denver Center
01:06PM 42.2561 -103.0539 41° Northeast 535 616 32,400 480 Climbing Denver Center
01:08PM 42.3806 -102.9044 42° Northeast 537 618 33,000 240 Climbing Denver Center
01:09PM 42.4869 -102.7772 41° Northeast 536 617 33,000  Level Denver Center
01:10PM 42.6131 -102.6239 42° Northeast 544 626 33,000  Level Denver Center
01:11PM 42.7219 -102.4906 42° Northeast 549 632 33,000  Level Denver Center
01:12PM 42.8494 -102.3344 42° Northeast 553 636 33,000  Level Denver Center
01:13PM 42.9553 -102.2022 42° Northeast 544 626 33,000  Level Denver Center
01:14PM 43.0803 -102.0461 42° Northeast 544 626 33,000  Level Denver Center
01:15PM 43.1889 -101.9139 42° Northeast 546 628 33,000  Level Denver Center
01:16PM 43.3028 -101.7678 43° Northeast 545 627 33,000  Level Denver Center
01:17PM 43.4150 -101.6303 42° Northeast 541 623 33,000  Level Denver Center
01:18PM 43.5264 -101.4897 42° Northeast 543 625 33,000  Level Denver Center
01:19PM 43.6375 -101.3483 43° Northeast 542 624 33,000  Level Denver Center
01:20PM 43.7722 -101.1808 42° Northeast 543 625 33,000  Level Denver Center
01:21PM 43.8819 -101.0381 43° Northeast 543 625 33,000  Level Denver Center
01:22PM 43.9919 -100.8972 43° Northeast 541 623 33,000  Level Minneapolis Center
01:23PM 44.1008 -100.7547 43° Northeast 540 621 33,000  Level Minneapolis Center
01:24PM 44.2347 -100.5825 43° Northeast 544 626 33,000  Level Minneapolis Center
01:25PM 44.3433 -100.4394 43° Northeast 540 621 33,000  Level Minneapolis Center
01:26PM 44.4522 -100.2950 43° Northeast 541 623 33,000  Level Minneapolis Center
01:27PM 44.5394 -100.1808 43° Northeast 540 621 33,000  Level Minneapolis Center
01:28PM 44.6700 -100.0075 43° Northeast 541 623 33,000  Level Minneapolis Center
01:29PM 44.7775 -99.8633 44° Northeast 540 621 33,000  Level Minneapolis Center
01:30PM 44.9053 -99.6903 44° Northeast 541 623 33,000  Level Minneapolis Center
01:31PM 45.0117 -99.5467 44° Northeast 540 621 33,000  Level Minneapolis Center
01:32PM 45.1181 -99.4008 44° Northeast 537 618 33,000  Level Minneapolis Center
01:33PM 45.2261 -99.2542 44° Northeast 539 620 33,000  Level Minneapolis Center
01:34PM 45.3336 -99.1061 44° Northeast 540 621 33,000  Level Minneapolis Center
01:35PM 45.4611 -98.9278 44° Northeast 539 620 33,000  Level Minneapolis Center
01:36PM 45.5681 -98.7803 44° Northeast 538 619 33,000  Level Minneapolis Center
01:38PM 45.6750 -98.6322 44° Northeast 537 618 33,000 -1,080 Level Minneapolis Center
01:39PM 45.7811 -98.4819 45° Northeast 537 618 30,800 -2,520 Descending Minneapolis Center
01:40PM 45.8853 -98.3350 44° Northeast 533 613 27,900 -2,820 Descending Minneapolis Center
01:41PM 45.9833 -98.2000 44° Northeast 504 580 25,100 -2,760 Descending Minneapolis Center
01:42PM 46.0706 -98.0731 45° Northeast 472 543 22,300 -3,000 Descending Minneapolis Center
01:43PM 46.1697 -97.9289 45° Northeast 435 501 19,000 -2,880 Descending Minneapolis Center
01:44PM 46.2497 -97.8139 45° Northeast 416 479 16,400 -2,760 Descending Minneapolis Center
01:45PM 46.3275 -97.6956 46° Northeast 381 438 13,400 -2,640 Descending Minneapolis Center
01:46PM 46.4039 -97.5856 45° Northeast 370 426 10,500 -2,040 Descending Minneapolis Center
01:47PM 46.4747 -97.4797 46° Northeast 299 344 8,900 -1,380 Descending Minneapolis Center
01:48PM 46.5267 -97.3900 50° Northeast 276 318 7,700 -1,260 Descending Minneapolis Center
01:49PM 46.5622 -97.3089 57° Northeast 250 288 6,400 -1,500 Descending Minneapolis Center
01:50PM 46.5906 -97.2183 65° Northeast 237 273 4,700 -1,620 Descending Minneapolis Center
01:51PM 46.6111 -97.1344 70° East 213 245 3,100 -840 Descending Minneapolis Center
01:52PM 46.6311 -97.0542 70° East 203 234 3,000 -60 Descending Minneapolis Center
01:53PM 46.6489 -96.9822 70° East 184 212 3,000  Level Minneapolis Center
01:54PM 46.6747 -96.9197 59° Northeast 179 206 3,000  Level Minneapolis Center
01:55PM 46.7033 -96.8681 51° Northeast 173 199 3,000  Level Minneapolis Center
01:56PM 46.7419 -96.8406 26° Northeast 173 199 3,000  Level Minneapolis Center
01:57PM 46.7964 -96.8183 16° North 175 201 3,000 -300 Level Minneapolis Center
01:58PM 46.8389 -96.8175 North 150 173 2,400 -600 Descending Minneapolis Center